Ever Develop — 3FLF8 — position and weather

sailwx.info

Track history (hours):
 
Tides and Currents Weather Stations Pressure Air Temp Water Temp Dewpoint Dewpoint Depression Visibility Wind Speed Wind Dir Waves Ship Positions

Ever Develop

Last reported at 2015-Aug-27 15:25 UTC. Time now 2015-Aug-28 00:10 UTC.
Position N 38°52' W 072°09'.

Type: Ship (hazmat cat D). MMSI: 356391000.

Date/timePositionNaut miles runAvg speedWind from/ knotsBaromVisibWave heightAir tempDewpointWater temp
2015-Aug-27 15:25N 38°52' W 072°09'1214.3
2015-Aug-27 14:34N 39°01' W 072°19'2914.3
2015-Aug-27 12:33N 39°24' W 072°43'1514.6
2015-Aug-27 11:32N 39°35' W 072°55'1414.4
2015-Aug-27 10:32N 39°46' W 073°06'1414.4
2015-Aug-27 09:33N 39°57' W 073°18'1414.4
2015-Aug-27 08:33N 40°08' W 073°30'1514.4
2015-Aug-27 07:32N 40°20' W 073°42'1313.8
2015-Aug-27 06:34N 40°29' W 073°55'1312.6
2015-Aug-27 05:33N 40°39' W 074°05'3 2.7
2015-Aug-27 04:33N 40°40' W 074°08'1 0.8
2015-Aug-27 03:31N 40°41' W 074°09'0 0.0
2015-Aug-27 02:31N 40°41' W 074°09'0 0.0
2015-Aug-27 01:31N 40°41' W 074°09'0 0.0
2015-Aug-27 00:31N 40°41' W 074°09'0 0.0
2015-Aug-26 23:31N 40°41' W 074°09'0 0.0
2015-Aug-26 22:31N 40°41' W 074°09'0 0.0
2015-Aug-26 21:31N 40°41' W 074°09'0 0.0
2015-Aug-26 20:31N 40°41' W 074°09'0 0.0
2015-Aug-26 19:31N 40°41' W 074°09'0 0.0
2015-Aug-26 18:28N 40°41' W 074°09'0 0.0
2015-Aug-26 17:31N 40°41' W 074°09'0 0.0
2015-Aug-26 16:31N 40°41' W 074°09'2 2.5
2015-Aug-26 15:33N 40°39' W 074°09'5 5.1
2015-Aug-26 14:33N 40°36' W 074°03'10 9.6
2015-Aug-26 13:33N 40°29' W 073°54'8 8.4
2015-Aug-26 12:34N 40°24' W 073°46'1615.5
2015-Aug-26 11:33N 40°08' W 073°45'1817.8
2015-Aug-26 10:33N 39°50' W 073°42'1717.4
2015-Aug-26 09:33N 39°33' W 073°47'1817.7
2015-Aug-26 08:33N 39°17' W 073°55'1817.6
2015-Aug-26 07:33N 39°01' W 074°04'3817.9
2015-Aug-26 05:25N 38°27' W 074°28'1517.7
2015-Aug-26 04:33N 38°13' W 074°37'103 4.9
2015-Aug-25 07:28N 36°58' W 076°06'1210.9
2015-Aug-25 06:21N 36°53' W 075°52'62 5.2
2015-Aug-24 18:26N 37°53' W 076°09'4916.9
2015-Aug-24 15:33N 38°40' W 076°25'1515.3
2015-Aug-24 14:33N 38°56' W 076°23'1313.3
2015-Aug-24 13:33N 39°09' W 076°25'9 9.4
2015-Aug-24 12:33N 39°15' W 076°34'1 0.6
2015-Aug-24 11:24N 39°15' W 076°33'0 0.0
2015-Aug-24 10:18N 39°15' W 076°33'0 0.0
2015-Aug-24 09:33N 39°15' W 076°33'0 0.0
2015-Aug-24 08:33N 39°15' W 076°33'0 0.0
2015-Aug-24 07:30N 39°15' W 076°33'0 0.0
2015-Aug-24 06:30N 39°15' W 076°33'0 0.0
2015-Aug-24 05:33N 39°15' W 076°33'0 0.0
2015-Aug-24 04:24N 39°15' W 076°33'0 0.0
2015-Aug-24 03:33N 39°15' W 076°33'0 0.0
2015-Aug-24 02:33N 39°15' W 076°33'0 0.0
2015-Aug-24 01:33N 39°15' W 076°33'0 0.0
2015-Aug-24 00:30N 39°15' W 076°33'0 0.0
2015-Aug-23 23:33N 39°15' W 076°33'0 0.0
2015-Aug-23 22:33N 39°15' W 076°33'0 0.0
2015-Aug-23 21:33N 39°15' W 076°33'0 0.0
2015-Aug-23 20:24N 39°15' W 076°33'0 0.0
2015-Aug-23 19:33N 39°15' W 076°33'0 0.0
2015-Aug-23 18:33N 39°15' W 076°33'0 0.0
2015-Aug-23 17:28N 39°15' W 076°33'0 0.0
2015-Aug-23 16:24N 39°15' W 076°33'0 0.0
2015-Aug-23 15:33N 39°15' W 076°33'3 3.5
2015-Aug-23 14:33N 39°12' W 076°31'1110.8
2015-Aug-23 13:33N 39°03' W 076°23'1717.0
2015-Aug-23 12:34N 38°46' W 076°26'1717.2
2015-Aug-23 11:33N 38°29' W 076°24'1818.0
2015-Aug-23 10:33N 38°12' W 076°15'37113.1
2015-Aug-22 06:12N 32°36' W 079°28'21 1.3
2015-Aug-21 13:15N 32°45' W 079°51'  
Track history (hours):
 
Tides and Currents Weather Stations Pressure Air Temp Water Temp Dewpoint Dewpoint Depression Visibility Wind Speed Wind Dir Waves Ship Positions

Ever Develop

Last reported at 2015-Aug-27 15:25 UTC. Time now 2015-Aug-28 00:10 UTC.
Position N 38°52' W 072°09'.

Type: Ship (hazmat cat D). MMSI: 356391000.

Date/timePositionNaut miles runAvg speedWind from/ knotsBaromVisibWave heightAir tempDewpointWater temp
2015-Aug-27 15:25N 38°52' W 072°09'1214.3
2015-Aug-27 14:34N 39°01' W 072°19'2914.3
2015-Aug-27 12:33N 39°24' W 072°43'1514.6
2015-Aug-27 11:32N 39°35' W 072°55'1414.4
2015-Aug-27 10:32N 39°46' W 073°06'1414.4
2015-Aug-27 09:33N 39°57' W 073°18'1414.4
2015-Aug-27 08:33N 40°08' W 073°30'1514.4
2015-Aug-27 07:32N 40°20' W 073°42'1313.8
2015-Aug-27 06:34N 40°29' W 073°55'1312.6
2015-Aug-27 05:33N 40°39' W 074°05'3 2.7
2015-Aug-27 04:33N 40°40' W 074°08'1 0.8
2015-Aug-27 03:31N 40°41' W 074°09'0 0.0
2015-Aug-27 02:31N 40°41' W 074°09'0 0.0
2015-Aug-27 01:31N 40°41' W 074°09'0 0.0
2015-Aug-27 00:31N 40°41' W 074°09'0 0.0
2015-Aug-26 23:31N 40°41' W 074°09'0 0.0
2015-Aug-26 22:31N 40°41' W 074°09'0 0.0
2015-Aug-26 21:31N 40°41' W 074°09'0 0.0
2015-Aug-26 20:31N 40°41' W 074°09'0 0.0
2015-Aug-26 19:31N 40°41' W 074°09'0 0.0
2015-Aug-26 18:28N 40°41' W 074°09'0 0.0
2015-Aug-26 17:31N 40°41' W 074°09'0 0.0
2015-Aug-26 16:31N 40°41' W 074°09'2 2.5
2015-Aug-26 15:33N 40°39' W 074°09'5 5.1
2015-Aug-26 14:33N 40°36' W 074°03'10 9.6
2015-Aug-26 13:33N 40°29' W 073°54'8 8.4
2015-Aug-26 12:34N 40°24' W 073°46'1615.5
2015-Aug-26 11:33N 40°08' W 073°45'1817.8
2015-Aug-26 10:33N 39°50' W 073°42'1717.4
2015-Aug-26 09:33N 39°33' W 073°47'1817.7
2015-Aug-26 08:33N 39°17' W 073°55'1817.6
2015-Aug-26 07:33N 39°01' W 074°04'3817.9
2015-Aug-26 05:25N 38°27' W 074°28'1517.7
2015-Aug-26 04:33N 38°13' W 074°37'103 4.9
2015-Aug-25 07:28N 36°58' W 076°06'1210.9
2015-Aug-25 06:21N 36°53' W 075°52'62 5.2
2015-Aug-24 18:26N 37°53' W 076°09'4916.9
2015-Aug-24 15:33N 38°40' W 076°25'1515.3
2015-Aug-24 14:33N 38°56' W 076°23'1313.3
2015-Aug-24 13:33N 39°09' W 076°25'9 9.4
2015-Aug-24 12:33N 39°15' W 076°34'1 0.6
2015-Aug-24 11:24N 39°15' W 076°33'0 0.0
2015-Aug-24 10:18N 39°15' W 076°33'0 0.0
2015-Aug-24 09:33N 39°15' W 076°33'0 0.0
2015-Aug-24 08:33N 39°15' W 076°33'0 0.0
2015-Aug-24 07:30N 39°15' W 076°33'0 0.0
2015-Aug-24 06:30N 39°15' W 076°33'0 0.0
2015-Aug-24 05:33N 39°15' W 076°33'0 0.0
2015-Aug-24 04:24N 39°15' W 076°33'0 0.0
2015-Aug-24 03:33N 39°15' W 076°33'0 0.0
2015-Aug-24 02:33N 39°15' W 076°33'0 0.0
2015-Aug-24 01:33N 39°15' W 076°33'0 0.0
2015-Aug-24 00:30N 39°15' W 076°33'0 0.0
2015-Aug-23 23:33N 39°15' W 076°33'0 0.0
2015-Aug-23 22:33N 39°15' W 076°33'0 0.0
2015-Aug-23 21:33N 39°15' W 076°33'0 0.0
2015-Aug-23 20:24N 39°15' W 076°33'0 0.0
2015-Aug-23 19:33N 39°15' W 076°33'0 0.0
2015-Aug-23 18:33N 39°15' W 076°33'0 0.0
2015-Aug-23 17:28N 39°15' W 076°33'0 0.0
2015-Aug-23 16:24N 39°15' W 076°33'0 0.0
2015-Aug-23 15:33N 39°15' W 076°33'3 3.5
2015-Aug-23 14:33N 39°12' W 076°31'1110.8
2015-Aug-23 13:33N 39°03' W 076°23'1717.0
2015-Aug-23 12:34N 38°46' W 076°26'1717.2
2015-Aug-23 11:33N 38°29' W 076°24'1818.0
2015-Aug-23 10:33N 38°12' W 076°15'37113.1
2015-Aug-22 06:12N 32°36' W 079°28'21 1.3
2015-Aug-21 13:15N 32°45' W 079°51'  

Dump ship's entire track history